createdAt,value
2023-01-29T00:00:09.132Z,1.72
2023-01-29T00:02:36.017Z,1.71
2023-01-29T00:05:13.140Z,1.73
2023-01-29T00:07:48.756Z,1.74
2023-01-29T00:10:15.367Z,1.74
2023-01-29T00:12:41.842Z,1.79
2023-01-29T00:15:08.154Z,1.78
2023-01-29T00:17:34.367Z,1.79
2023-01-29T00:20:00.570Z,1.87
2023-01-29T00:22:26.789Z,1.86
2023-01-29T00:24:52.986Z,1.86
2023-01-29T00:27:19.188Z,1.88
2023-01-29T00:29:45.387Z,1.92
2023-01-29T00:32:11.683Z,1.90
2023-01-29T00:34:37.924Z,1.90
2023-01-29T00:37:04.142Z,1.93
2023-01-29T00:39:46.042Z,1.95
2023-01-29T00:42:13.490Z,1.93
2023-01-29T00:44:39.682Z,1.92
2023-01-29T00:47:05.921Z,1.94
2023-01-29T00:49:32.116Z,1.98
2023-01-29T00:51:58.326Z,2.00
2023-01-29T00:54:24.529Z,2.00
2023-01-29T00:56:50.738Z,2.00
2023-01-29T00:59:16.945Z,2.02
2023-01-29T01:01:43.208Z,2.03
2023-01-29T01:04:09.912Z,2.07
2023-01-29T01:06:39.516Z,2.03
2023-01-29T01:09:05.932Z,2.11
2023-01-29T01:11:33.240Z,2.07
2023-01-29T01:13:59.457Z,2.06
2023-01-29T01:16:25.690Z,2.08
2023-01-29T01:18:51.915Z,2.10
2023-01-29T01:21:18.125Z,2.11
2023-01-29T01:23:44.317Z,2.12
2023-01-29T01:26:10.553Z,2.11
2023-01-29T01:28:36.780Z,2.14
2023-01-29T01:31:10.071Z,2.14
2023-01-29T01:33:36.360Z,2.19
2023-01-29T01:36:02.779Z,2.18
2023-01-29T01:38:28.987Z,2.18
2023-01-29T01:40:55.181Z,2.19
2023-01-29T01:43:21.400Z,2.27
2023-01-29T01:45:47.622Z,2.26
2023-01-29T01:48:15.483Z,2.26
2023-01-29T01:50:43.217Z,2.26
2023-01-29T01:53:10.770Z,2.26
2023-01-29T01:55:37.780Z,2.28
2023-01-29T01:58:06.736Z,2.30
2023-01-29T02:00:32.940Z,2.30
2023-01-29T02:02:59.151Z,2.30
2023-01-29T02:05:25.382Z,2.31
2023-01-29T02:07:51.581Z,2.32
2023-01-29T02:10:18.132Z,2.32
2023-01-29T02:12:44.553Z,2.33
2023-01-29T02:15:10.806Z,2.33
2023-01-29T02:17:37.046Z,2.34
2023-01-29T02:20:05.966Z,2.33
2023-01-29T02:22:47.393Z,2.37
2023-01-29T02:25:25.180Z,2.35
2023-01-29T02:28:10.253Z,2.37
2023-01-29T02:30:37.668Z,2.40
2023-01-29T02:33:22.697Z,2.40
2023-01-29T02:35:55.458Z,2.42
2023-01-29T02:38:24.991Z,2.45
2023-01-29T02:40:58.333Z,2.48
2023-01-29T02:43:37.898Z,2.47
2023-01-29T02:46:07.089Z,2.46
2023-01-29T02:48:48.686Z,2.48
2023-01-29T02:51:18.702Z,2.48
2023-01-29T02:53:47.665Z,2.50
2023-01-29T02:56:15.412Z,2.58
2023-01-29T02:58:42.650Z,2.56
2023-01-29T03:01:10.200Z,2.57
2023-01-29T03:03:38.109Z,2.54
2023-01-29T03:06:06.326Z,2.56
2023-01-29T03:08:37.845Z,2.63
2023-01-29T03:11:05.147Z,2.64
2023-01-29T03:13:40.152Z,2.65
2023-01-29T03:16:26.676Z,2.61
2023-01-29T03:18:54.821Z,2.61
2023-01-29T03:21:22.530Z,2.60
2023-01-29T03:23:48.746Z,2.63
2023-01-29T03:26:15.394Z,2.64
2023-01-29T03:28:41.921Z,2.63
2023-01-29T03:31:09.629Z,2.63
2023-01-29T03:33:40.441Z,2.66
2023-01-29T03:36:08.745Z,2.67
2023-01-29T03:38:34.954Z,2.64
2023-01-29T03:41:05.727Z,2.65
2023-01-29T03:43:47.271Z,2.67
2023-01-29T03:46:17.358Z,2.71
2023-01-29T03:48:49.567Z,2.69
2023-01-29T03:51:15.721Z,2.74
2023-01-29T03:53:42.902Z,2.73
2023-01-29T03:56:21.424Z,2.76
2023-01-29T03:58:49.945Z,2.79
2023-01-29T04:01:26.559Z,2.77
2023-01-29T04:03:53.981Z,2.79
2023-01-29T04:06:20.754Z,2.79
2023-01-29T04:08:49.923Z,2.80
2023-01-29T04:11:16.451Z,2.83
2023-01-29T04:13:42.655Z,2.88
2023-01-29T04:16:10.354Z,2.89
2023-01-29T04:18:36.630Z,2.90
2023-01-29T04:21:02.868Z,2.89
2023-01-29T04:23:29.070Z,2.89
2023-01-29T04:26:10.411Z,2.88
2023-01-29T04:28:54.477Z,2.92
2023-01-29T04:31:22.468Z,2.95
2023-01-29T04:34:08.940Z,2.93
2023-01-29T04:36:39.945Z,2.95
2023-01-29T04:39:25.579Z,2.94
2023-01-29T04:41:55.720Z,2.94
2023-01-29T04:44:23.742Z,2.92
2023-01-29T04:46:57.780Z,2.89
2023-01-29T04:49:42.888Z,2.92
2023-01-29T04:52:11.309Z,2.90
2023-01-29T04:54:45.537Z,2.93
2023-01-29T04:57:14.564Z,2.91
2023-01-29T04:59:48.036Z,2.97
2023-01-29T05:02:14.263Z,2.95
2023-01-29T05:04:40.889Z,2.96
2023-01-29T05:07:07.963Z,2.98
2023-01-29T05:09:34.165Z,2.98
2023-01-29T05:12:00.713Z,2.95
2023-01-29T05:14:26.948Z,2.99
2023-01-29T05:16:53.316Z,2.98
2023-01-29T05:19:19.524Z,2.97
2023-01-29T05:21:46.339Z,3.02
2023-01-29T05:24:12.648Z,3.03
2023-01-29T05:26:38.868Z,3.02
2023-01-29T05:29:05.088Z,3.00
2023-01-29T05:31:31.361Z,3.06
2023-01-29T05:33:57.620Z,3.06
2023-01-29T05:36:23.825Z,3.04
2023-01-29T05:38:50.087Z,3.09
2023-01-29T05:41:16.300Z,3.10
2023-01-29T05:43:42.742Z,3.10
2023-01-29T05:46:09.264Z,3.15
2023-01-29T05:48:35.469Z,3.14
2023-01-29T05:51:01.919Z,3.14
2023-01-29T05:53:30.998Z,3.13
2023-01-29T05:55:57.331Z,3.17
2023-01-29T05:58:23.565Z,3.19
2023-01-29T06:00:49.781Z,3.19
2023-01-29T06:03:16.045Z,3.24
2023-01-29T06:05:42.253Z,3.24
2023-01-29T06:08:08.545Z,3.26
2023-01-29T06:10:34.747Z,3.26
2023-01-29T06:13:00.964Z,3.26
2023-01-29T06:15:27.157Z,3.28
2023-01-29T06:17:53.789Z,3.31
2023-01-29T06:20:20.013Z,3.34
2023-01-29T06:22:46.212Z,3.35
2023-01-29T06:25:12.439Z,3.33
2023-01-29T06:27:38.633Z,3.34
2023-01-29T06:30:05.262Z,3.32
2023-01-29T06:32:31.535Z,3.35
2023-01-29T06:34:57.798Z,3.38
2023-01-29T06:37:23.990Z,3.36
2023-01-29T06:39:50.198Z,3.34
2023-01-29T06:42:16.403Z,3.34
2023-01-29T06:44:42.623Z,3.37
2023-01-29T06:47:08.827Z,3.42
2023-01-29T06:49:35.030Z,3.38
2023-01-29T06:52:01.242Z,3.41
2023-01-29T06:54:27.447Z,3.41
2023-01-29T06:56:53.645Z,3.46
2023-01-29T06:59:19.855Z,3.47
2023-01-29T07:01:46.155Z,3.41
2023-01-29T07:04:12.435Z,3.46
2023-01-29T07:06:38.718Z,3.45
2023-01-29T07:09:04.939Z,3.42
2023-01-29T07:11:31.247Z,3.48
2023-01-29T07:13:57.478Z,3.46
2023-01-29T07:16:23.774Z,3.46
2023-01-29T07:18:50.020Z,3.47
2023-01-29T07:21:16.226Z,3.46
2023-01-29T07:23:43.000Z,3.51
2023-01-29T07:26:09.850Z,3.48
2023-01-29T07:28:36.489Z,3.48
2023-01-29T07:31:02.775Z,3.47
2023-01-29T07:33:29.003Z,3.49
2023-01-29T07:35:55.212Z,3.51
2023-01-29T07:38:21.475Z,3.48
2023-01-29T07:40:47.715Z,3.49
2023-01-29T07:43:13.949Z,3.47
2023-01-29T07:45:40.299Z,3.49
2023-01-29T07:48:07.030Z,3.47
2023-01-29T07:50:33.559Z,3.48
2023-01-29T07:52:59.823Z,3.51
2023-01-29T07:55:26.068Z,3.52
2023-01-29T07:57:55.809Z,3.55
2023-01-29T08:00:22.080Z,3.51
2023-01-29T08:02:48.276Z,3.55
2023-01-29T08:05:14.485Z,3.55
2023-01-29T08:07:40.695Z,3.55
2023-01-29T08:10:06.999Z,3.60
2023-01-29T08:12:33.208Z,3.57
2023-01-29T08:14:59.423Z,3.56
2023-01-29T08:17:25.618Z,3.57
2023-01-29T08:19:51.823Z,3.58
2023-01-29T08:22:18.056Z,3.56
2023-01-29T08:24:53.844Z,3.60
2023-01-29T08:27:26.536Z,3.57
2023-01-29T08:29:52.796Z,3.58
2023-01-29T08:32:19.001Z,3.60
2023-01-29T08:34:45.214Z,3.62
2023-01-29T08:37:11.426Z,3.61
2023-01-29T08:39:37.641Z,3.61
2023-01-29T08:42:03.884Z,3.64
2023-01-29T08:44:30.087Z,3.61
2023-01-29T08:46:56.312Z,3.62
2023-01-29T08:49:22.555Z,3.64
2023-01-29T08:51:48.772Z,3.63
2023-01-29T08:54:14.974Z,3.65
2023-01-29T08:56:41.196Z,3.67
2023-01-29T08:59:07.403Z,3.64
2023-01-29T09:01:33.721Z,3.66
2023-01-29T09:04:00.016Z,3.64
2023-01-29T09:06:26.231Z,3.67
2023-01-29T09:08:52.447Z,3.66
2023-01-29T09:11:18.653Z,3.70
2023-01-29T09:13:44.869Z,3.70
2023-01-29T09:16:11.118Z,3.71
2023-01-29T09:18:37.328Z,3.72
2023-01-29T09:21:03.635Z,3.70
2023-01-29T09:23:29.856Z,3.70
2023-01-29T09:25:56.118Z,3.70
2023-01-29T09:28:22.385Z,3.72
2023-01-29T09:30:48.691Z,3.73
2023-01-29T09:33:14.991Z,3.75
2023-01-29T09:35:41.619Z,3.72
2023-01-29T09:38:08.527Z,3.73
2023-01-29T09:40:43.823Z,3.76
2023-01-29T09:43:27.377Z,3.77
2023-01-29T09:45:58.288Z,3.74
2023-01-29T09:48:28.376Z,3.74
2023-01-29T09:50:54.741Z,3.76
2023-01-29T09:53:21.901Z,3.76
2023-01-29T09:55:56.342Z,3.77
2023-01-29T09:58:25.615Z,3.78
2023-01-29T10:00:54.521Z,3.81
2023-01-29T10:03:23.985Z,3.83
2023-01-29T10:05:50.162Z,3.80
2023-01-29T10:08:16.437Z,3.80
2023-01-29T10:10:55.940Z,3.80
2023-01-29T10:13:25.129Z,3.82
2023-01-29T10:15:51.618Z,3.83
2023-01-29T10:18:47.156Z,3.86
2023-01-29T10:21:17.080Z,3.79
2023-01-29T10:23:53.900Z,3.80
2023-01-29T10:26:20.986Z,3.79
2023-01-29T10:28:48.081Z,3.81
2023-01-29T10:31:33.559Z,3.82
2023-01-29T10:34:21.343Z,3.80
2023-01-29T10:36:48.202Z,3.80
2023-01-29T10:39:18.082Z,3.85
2023-01-29T10:41:44.273Z,3.88
2023-01-29T10:44:30.722Z,3.86
2023-01-29T10:47:00.022Z,3.88
2023-01-29T10:49:32.170Z,3.88
2023-01-29T10:52:03.175Z,3.87
2023-01-29T10:54:32.532Z,3.82
2023-01-29T10:57:19.209Z,3.82
2023-01-29T10:59:48.831Z,3.88
2023-01-29T11:02:15.888Z,3.92
2023-01-29T11:04:42.104Z,3.91
2023-01-29T11:07:08.323Z,3.87
2023-01-29T11:09:35.795Z,3.90
2023-01-29T11:12:03.021Z,3.86
2023-01-29T11:14:32.546Z,3.88
2023-01-29T11:16:58.802Z,3.87
2023-01-29T11:19:38.266Z,3.81
2023-01-29T11:22:04.554Z,3.79
2023-01-29T11:24:30.746Z,3.78
2023-01-29T11:26:57.984Z,3.79
2023-01-29T11:29:27.173Z,3.79
2023-01-29T11:31:53.475Z,3.77
2023-01-29T11:34:20.816Z,3.76
2023-01-29T11:36:47.023Z,3.78
2023-01-29T11:39:16.213Z,3.78
2023-01-29T11:41:49.652Z,3.75
2023-01-29T11:44:39.105Z,3.81
2023-01-29T11:47:14.083Z,4.11
2023-01-29T11:49:40.949Z,3.96
2023-01-29T11:52:07.665Z,3.87
2023-01-29T11:54:38.505Z,3.79
2023-01-29T11:57:04.779Z,3.79
2023-01-29T11:59:37.891Z,3.80
2023-01-29T12:02:13.331Z,4.12
2023-01-29T12:04:39.572Z,4.08
2023-01-29T12:07:10.501Z,4.37
2023-01-29T12:09:36.733Z,4.57
2023-01-29T12:12:26.835Z,4.20
2023-01-29T12:15:02.413Z,3.89
2023-01-29T12:17:28.613Z,3.83
2023-01-29T12:19:55.598Z,4.06
2023-01-29T12:22:21.749Z,4.07
2023-01-29T12:27:34.150Z,4.39
2023-01-29T12:30:06.299Z,4.15
2023-01-29T12:32:34.896Z,3.97
2023-01-29T12:35:10.557Z,3.89
2023-01-29T12:37:51.988Z,3.92
2023-01-29T12:40:18.719Z,3.92
2023-01-29T12:42:46.425Z,3.89
2023-01-29T12:45:16.028Z,3.79
2023-01-29T12:47:59.104Z,3.83
2023-01-29T12:50:29.131Z,3.78
2023-01-29T12:53:10.090Z,3.81
2023-01-29T12:55:43.034Z,3.80
2023-01-29T12:58:10.405Z,3.80
2023-01-29T13:00:37.531Z,3.86
2023-01-29T13:03:22.716Z,3.87
2023-01-29T13:05:53.137Z,3.91
2023-01-29T13:08:20.770Z,3.94
2023-01-29T13:10:50.555Z,3.96
2023-01-29T13:13:35.605Z,3.90
2023-01-29T13:16:01.916Z,3.94
2023-01-29T13:18:37.191Z,3.89
2023-01-29T13:21:03.519Z,3.97
2023-01-29T13:23:39.514Z,3.95
2023-01-29T13:26:05.730Z,3.95
2023-01-29T13:28:31.945Z,3.88
2023-01-29T13:31:16.912Z,3.86
2023-01-29T13:33:43.129Z,3.86
2023-01-29T13:36:16.280Z,3.83
2023-01-29T13:38:42.487Z,3.81
2023-01-29T13:41:08.703Z,3.79
2023-01-29T13:43:38.605Z,3.76
2023-01-29T13:46:08.869Z,3.76
2023-01-29T13:48:35.103Z,3.76
2023-01-29T13:51:01.430Z,3.73
2023-01-29T13:53:28.557Z,3.73
2023-01-29T13:55:54.764Z,3.74
2023-01-29T13:58:46.689Z,3.73
2023-01-29T14:01:12.934Z,3.71
2023-01-29T14:04:03.618Z,3.70
2023-01-29T14:06:38.093Z,3.72
2023-01-29T14:09:04.298Z,3.73
2023-01-29T14:11:34.120Z,3.74
2023-01-29T14:14:00.322Z,3.76
2023-01-29T14:16:27.411Z,3.75
2023-01-29T14:21:36.198Z,3.75
2023-01-29T14:24:09.464Z,3.73
2023-01-29T14:26:38.528Z,3.73
2023-01-29T14:29:04.744Z,3.73
2023-01-29T14:31:39.200Z,3.75
2023-01-29T14:34:06.420Z,3.69
2023-01-29T14:36:39.736Z,3.73
2023-01-29T14:39:05.930Z,3.72
2023-01-29T14:41:32.692Z,3.70
2023-01-29T14:44:17.684Z,3.70
2023-01-29T14:46:43.974Z,3.74
2023-01-29T14:49:10.183Z,3.75
2023-01-29T14:51:36.824Z,3.74
2023-01-29T14:54:13.007Z,3.71
2023-01-29T14:56:52.066Z,3.70
2023-01-29T14:59:29.400Z,3.72
2023-01-29T15:01:55.944Z,3.74
2023-01-29T15:04:41.626Z,3.74
2023-01-29T15:07:10.818Z,3.75
2023-01-29T15:09:42.584Z,3.73
2023-01-29T15:12:14.885Z,3.71
2023-01-29T15:14:52.436Z,3.71
2023-01-29T15:17:20.769Z,3.63
2023-01-29T15:19:47.326Z,3.62
2023-01-29T15:22:17.107Z,3.63
2023-01-29T15:24:43.567Z,3.63
2023-01-29T15:27:11.188Z,3.63
2023-01-29T15:29:37.381Z,3.65
2023-01-29T15:32:03.656Z,3.66
2023-01-29T15:34:29.915Z,3.61
2023-01-29T15:37:03.297Z,3.62
2023-01-29T15:39:29.498Z,3.62
2023-01-29T15:42:10.595Z,3.59
2023-01-29T15:44:36.790Z,3.62
2023-01-29T15:47:03.037Z,3.62
2023-01-29T15:49:30.135Z,3.59
2023-01-29T15:51:57.039Z,3.59
2023-01-29T15:54:23.268Z,3.65
2023-01-29T15:56:52.510Z,3.63
2023-01-29T15:59:19.399Z,3.69
2023-01-29T16:01:45.945Z,3.62
2023-01-29T16:04:13.534Z,3.58
2023-01-29T16:06:39.906Z,3.52
2023-01-29T16:09:06.172Z,3.56
2023-01-29T16:11:32.761Z,3.52
2023-01-29T16:13:58.970Z,3.55
2023-01-29T16:16:25.514Z,3.53
2023-01-29T16:18:59.874Z,3.52
2023-01-29T16:21:31.028Z,3.45
2023-01-29T16:24:04.967Z,3.47
2023-01-29T16:26:31.849Z,3.50
2023-01-29T16:28:58.086Z,3.49
2023-01-29T16:31:25.885Z,3.48
2023-01-29T16:33:52.173Z,3.48
2023-01-29T16:36:19.281Z,3.44
2023-01-29T16:39:05.739Z,3.48
2023-01-29T16:41:35.610Z,3.48
2023-01-29T16:44:02.359Z,3.52
2023-01-29T16:46:34.774Z,3.45
2023-01-29T16:49:01.129Z,3.47
2023-01-29T16:51:37.248Z,3.44
2023-01-29T16:54:07.264Z,3.48
2023-01-29T16:56:33.461Z,3.39
2023-01-29T16:59:00.051Z,3.40
2023-01-29T17:01:26.664Z,3.40
2023-01-29T17:03:57.723Z,3.40
2023-01-29T17:06:24.442Z,3.41
2023-01-29T17:08:50.655Z,3.43
2023-01-29T17:11:24.563Z,3.43
2023-01-29T17:13:50.778Z,3.39
2023-01-29T17:16:20.094Z,3.42
2023-01-29T17:18:46.323Z,3.42
2023-01-29T17:21:12.532Z,3.38
2023-01-29T17:23:38.759Z,3.37
2023-01-29T17:26:05.071Z,3.33
2023-01-29T17:28:31.340Z,3.37
2023-01-29T17:31:06.365Z,3.39
2023-01-29T17:33:33.267Z,3.32
2023-01-29T17:35:59.467Z,3.30
2023-01-29T17:38:26.807Z,3.29
2023-01-29T17:40:53.427Z,3.26
2023-01-29T17:43:19.642Z,3.22
2023-01-29T17:45:46.208Z,3.18
2023-01-29T17:48:18.045Z,3.20
2023-01-29T17:50:44.272Z,3.24
2023-01-29T17:53:10.481Z,3.16
2023-01-29T17:55:36.700Z,3.14
2023-01-29T17:58:03.241Z,3.17
2023-01-29T18:00:29.504Z,3.16
2023-01-29T18:02:55.704Z,3.06
2023-01-29T18:05:22.383Z,3.08
2023-01-29T18:07:48.586Z,3.05
2023-01-29T18:10:18.846Z,3.05
2023-01-29T18:12:45.057Z,3.04
2023-01-29T18:15:11.679Z,3.07
2023-01-29T18:17:38.095Z,3.03
2023-01-29T18:20:06.681Z,3.09
2023-01-29T18:22:32.970Z,3.00
2023-01-29T18:24:59.192Z,3.06
2023-01-29T18:27:25.481Z,3.07
2023-01-29T18:29:51.691Z,3.09
2023-01-29T18:32:17.895Z,3.06
2023-01-29T18:34:44.091Z,3.07
2023-01-29T18:37:12.960Z,3.04
2023-01-29T18:39:39.288Z,3.11
2023-01-29T18:42:05.495Z,3.09
2023-01-29T18:44:31.716Z,3.05
2023-01-29T18:46:57.939Z,3.13
2023-01-29T18:49:24.148Z,3.14
2023-01-29T18:51:50.346Z,3.15
2023-01-29T18:54:16.578Z,3.17
2023-01-29T18:57:13.407Z,3.15
2023-01-29T18:59:29.227Z,3.10
2023-01-29T19:01:55.559Z,3.10
2023-01-29T19:04:21.785Z,3.10
2023-01-29T19:06:48.075Z,3.11
2023-01-29T19:09:14.292Z,3.08
2023-01-29T19:11:40.495Z,3.08
2023-01-29T19:14:06.797Z,3.11
2023-01-29T19:16:33.031Z,3.08
2023-01-29T19:18:59.314Z,3.08
2023-01-29T19:21:25.541Z,3.15
2023-01-29T19:23:51.778Z,3.15
2023-01-29T19:26:18.041Z,3.17
2023-01-29T19:28:44.249Z,3.16
2023-01-29T19:31:10.500Z,3.17
2023-01-29T19:33:36.738Z,3.21
2023-01-29T19:36:02.972Z,3.18
2023-01-29T19:38:29.206Z,3.19
2023-01-29T19:40:55.450Z,3.17
2023-01-29T19:43:21.648Z,3.20
2023-01-29T19:45:49.395Z,3.18
2023-01-29T19:48:16.617Z,3.16
2023-01-29T19:50:42.826Z,3.17
2023-01-29T19:53:09.021Z,3.16
2023-01-29T19:55:35.241Z,3.20
2023-01-29T19:58:01.436Z,3.18
2023-01-29T20:00:27.722Z,3.17
2023-01-29T20:02:53.952Z,3.15
2023-01-29T20:05:20.592Z,3.14
2023-01-29T20:07:46.938Z,3.07
2023-01-29T20:10:13.169Z,3.07
2023-01-29T20:12:39.371Z,3.09
2023-01-29T20:15:05.715Z,3.11
2023-01-29T20:17:31.928Z,3.08
2023-01-29T20:19:58.143Z,3.13
2023-01-29T20:22:24.349Z,3.15
2023-01-29T20:24:50.542Z,3.15
2023-01-29T20:27:16.746Z,3.09
2023-01-29T20:29:42.941Z,3.13
2023-01-29T20:32:09.134Z,3.16
2023-01-29T20:34:35.718Z,3.09
2023-01-29T20:37:01.955Z,3.08
2023-01-29T20:39:28.170Z,3.11
2023-01-29T20:41:54.392Z,3.11
2023-01-29T20:44:20.591Z,3.16
2023-01-29T20:46:46.792Z,3.09
2023-01-29T20:49:13.015Z,3.15
2023-01-29T20:51:39.240Z,3.15
2023-01-29T20:54:05.463Z,3.13
2023-01-29T20:56:36.311Z,3.15
2023-01-29T20:59:09.028Z,3.09
2023-01-29T21:01:35.226Z,3.08
2023-01-29T21:04:01.431Z,3.14
2023-01-29T21:06:27.650Z,3.12
2023-01-29T21:08:53.866Z,3.07
2023-01-29T21:11:20.069Z,3.13
2023-01-29T21:13:46.275Z,3.11
2023-01-29T21:16:12.718Z,3.08
2023-01-29T21:18:38.966Z,3.14
2023-01-29T21:21:05.245Z,3.08
2023-01-29T21:23:31.451Z,3.09
2023-01-29T21:26:04.200Z,3.11
2023-01-29T21:28:30.429Z,3.11
2023-01-29T21:31:05.975Z,3.09
2023-01-29T21:33:32.192Z,3.02
2023-01-29T21:35:58.712Z,3.02
2023-01-29T21:38:25.058Z,3.00
2023-01-29T21:40:51.274Z,2.97
2023-01-29T21:43:17.493Z,2.93
2023-01-29T21:45:43.745Z,3.01
2023-01-29T21:48:10.193Z,2.95
2023-01-29T21:50:36.426Z,2.97
2023-01-29T21:53:02.681Z,2.93
2023-01-29T21:55:28.887Z,2.93
2023-01-29T21:57:55.108Z,2.93
2023-01-29T22:00:21.378Z,2.94
2023-01-29T22:02:47.672Z,2.88
2023-01-29T22:05:19.482Z,2.94
2023-01-29T22:07:46.201Z,2.91
2023-01-29T22:10:12.599Z,2.90
2023-01-29T22:12:38.982Z,2.91
2023-01-29T22:15:05.607Z,2.90
2023-01-29T22:17:31.819Z,2.92
2023-01-29T22:19:58.027Z,2.89
2023-01-29T22:22:24.243Z,2.89
2023-01-29T22:24:50.438Z,2.91
2023-01-29T22:27:16.638Z,2.91
2023-01-29T22:29:42.853Z,2.92
2023-01-29T22:32:09.347Z,2.91
2023-01-29T22:34:35.588Z,2.90
2023-01-29T22:37:01.834Z,2.92
2023-01-29T22:39:28.030Z,2.95
2023-01-29T22:41:54.242Z,2.95
2023-01-29T22:44:20.449Z,2.97
2023-01-29T22:46:46.692Z,2.96
2023-01-29T22:49:12.914Z,2.98
2023-01-29T22:51:39.125Z,2.97
2023-01-29T22:54:05.323Z,3.00
2023-01-29T22:56:31.537Z,3.05
2023-01-29T22:58:58.318Z,3.03
2023-01-29T23:01:25.315Z,3.03
2023-01-29T23:03:51.533Z,3.09
2023-01-29T23:06:17.753Z,3.09
2023-01-29T23:08:44.146Z,3.07
2023-01-29T23:11:11.017Z,3.08
2023-01-29T23:13:37.222Z,3.09
2023-01-29T23:16:03.448Z,3.08
2023-01-29T23:18:29.690Z,3.14
2023-01-29T23:20:56.485Z,3.10
2023-01-29T23:23:22.687Z,3.13
2023-01-29T23:25:48.882Z,3.11
2023-01-29T23:28:15.100Z,3.17
2023-01-29T23:30:41.338Z,3.16
2023-01-29T23:33:07.710Z,3.23
2023-01-29T23:35:33.906Z,3.20
2023-01-29T23:38:00.140Z,3.20
2023-01-29T23:40:26.343Z,3.15
2023-01-29T23:42:52.549Z,3.16
2023-01-29T23:45:18.775Z,3.15
2023-01-29T23:47:44.998Z,3.15
2023-01-29T23:50:11.402Z,3.22
2023-01-29T23:52:37.894Z,3.20
2023-01-29T23:55:04.227Z,3.23
2023-01-29T23:57:30.434Z,3.20
2023-01-29T23:59:56.626Z,3.24
